createdAt,value
2017-10-16T00:00:02.352Z,99.99
2017-10-16T00:01:12.909Z,99.99
2017-10-16T00:02:23.196Z,99.99
2017-10-16T00:03:33.161Z,99.99
2017-10-16T00:04:43.131Z,99.99
2017-10-16T00:05:53.442Z,99.99
2017-10-16T00:07:04.008Z,99.99
2017-10-16T00:08:14.308Z,99.99
2017-10-16T00:09:24.610Z,99.99
2017-10-16T00:10:34.595Z,99.99
2017-10-16T00:11:44.892Z,99.99
2017-10-16T00:12:55.429Z,99.99
2017-10-16T00:14:05.401Z,99.99
2017-10-16T00:15:15.371Z,99.99
2017-10-16T00:16:25.678Z,99.99
2017-10-16T00:17:35.666Z,99.99
2017-10-16T00:18:46.214Z,99.99
2017-10-16T00:19:56.519Z,99.99
2017-10-16T00:21:06.819Z,99.99
2017-10-16T00:22:17.108Z,99.99
2017-10-16T00:23:27.394Z,99.99
2017-10-16T00:24:37.946Z,99.99
2017-10-16T00:25:48.234Z,99.99
2017-10-16T00:26:58.532Z,99.99
2017-10-16T00:28:08.839Z,99.99
2017-10-16T00:29:18.805Z,99.99
2017-10-16T00:30:29.365Z,99.99
2017-10-16T00:31:39.661Z,99.99
2017-10-16T00:32:49.951Z,99.99
2017-10-16T00:33:59.600Z,99.99
2017-10-16T00:35:09.894Z,99.99
2017-10-16T00:36:20.447Z,99.99
2017-10-16T00:37:30.742Z,99.99
2017-10-16T00:38:41.044Z,99.99
2017-10-16T00:39:51.017Z,99.99
2017-10-16T00:41:00.980Z,99.99
2017-10-16T00:42:11.518Z,99.99
2017-10-16T00:43:21.485Z,99.99
2017-10-16T00:44:31.786Z,99.99
2017-10-16T00:45:42.085Z,99.99
2017-10-16T00:46:52.054Z,99.99
2017-10-16T00:48:02.607Z,99.99
2017-10-16T00:49:12.893Z,99.99
2017-10-16T00:50:23.341Z,99.99
2017-10-16T00:51:33.331Z,99.99
2017-10-16T00:52:43.630Z,99.99
2017-10-16T00:53:53.847Z,99.99
2017-10-16T00:55:04.133Z,99.99
2017-10-16T00:56:13.777Z,99.99
2017-10-16T00:57:24.089Z,99.99
2017-10-16T00:58:34.393Z,99.99
2017-10-16T00:59:44.933Z,99.99
2017-10-16T01:00:55.235Z,99.99
2017-10-16T01:02:04.869Z,99.99
2017-10-16T01:03:15.169Z,99.99
2017-10-16T01:04:25.484Z,99.99
2017-10-16T01:05:36.048Z,99.99
2017-10-16T01:06:46.346Z,99.99
2017-10-16T01:07:56.322Z,99.99
2017-10-16T01:09:06.315Z,99.99
2017-10-16T01:10:16.292Z,99.99
2017-10-16T01:11:26.833Z,99.99
2017-10-16T01:12:37.134Z,99.99
2017-10-16T01:13:47.439Z,99.99
2017-10-16T01:14:57.742Z,99.99
2017-10-16T01:16:08.038Z,99.99
2017-10-16T01:17:18.256Z,99.99
2017-10-16T01:18:28.549Z,99.99
2017-10-16T01:19:38.831Z,99.99
2017-10-16T01:20:49.129Z,99.99
2017-10-16T01:21:58.775Z,99.99
2017-10-16T01:23:09.333Z,99.99
2017-10-16T01:24:19.634Z,99.99
2017-10-16T01:25:29.926Z,99.99
2017-10-16T01:26:40.236Z,99.99
2017-10-16T01:27:50.527Z,99.99
2017-10-16T01:29:01.073Z,99.99
2017-10-16T01:30:11.370Z,99.99
2017-10-16T01:31:21.656Z,99.99
2017-10-16T01:32:31.942Z,99.99
2017-10-16T01:33:41.921Z,99.99
2017-10-16T01:34:52.473Z,99.99
2017-10-16T01:36:02.446Z,99.99
2017-10-16T01:37:12.414Z,99.99
2017-10-16T01:38:22.387Z,99.99
2017-10-16T01:39:32.682Z,99.99
2017-10-16T01:40:43.391Z,99.99
2017-10-16T01:41:53.047Z,99.99
2017-10-16T01:43:03.017Z,99.99
2017-10-16T01:44:12.993Z,99.99
2017-10-16T01:45:22.961Z,99.99
2017-10-16T01:46:33.515Z,99.99
2017-10-16T01:47:43.801Z,99.99
2017-10-16T01:48:54.091Z,99.99
2017-10-16T01:50:04.383Z,99.99
2017-10-16T01:51:14.696Z,99.99
2017-10-16T01:52:25.242Z,99.99
2017-10-16T01:53:35.528Z,99.99
2017-10-16T01:54:45.499Z,99.99
2017-10-16T01:55:55.796Z,99.99
2017-10-16T01:57:06.097Z,99.99
2017-10-16T01:58:16.630Z,99.99
2017-10-16T01:59:26.925Z,99.99
2017-10-16T02:00:37.225Z,99.99
2017-10-16T02:01:47.197Z,99.99
2017-10-16T02:02:57.491Z,99.99
2017-10-16T02:04:08.039Z,99.99
2017-10-16T02:05:18.332Z,99.99
2017-10-16T02:06:28.617Z,99.99
2017-10-16T02:07:38.909Z,99.99
2017-10-16T02:08:48.558Z,99.99
2017-10-16T02:09:58.794Z,99.99
2017-10-16T02:11:08.757Z,99.99
2017-10-16T02:12:18.720Z,99.99
2017-10-16T02:13:29.036Z,99.99
2017-10-16T02:14:39.334Z,99.99
2017-10-16T02:15:49.885Z,99.99
2017-10-16T02:16:59.864Z,99.99
2017-10-16T02:18:10.162Z,99.99
2017-10-16T02:19:20.454Z,99.99
2017-10-16T02:20:30.747Z,99.99
2017-10-16T02:21:40.977Z,99.99
2017-10-16T02:22:50.951Z,99.99
2017-10-16T02:24:00.918Z,99.99
2017-10-16T02:25:11.206Z,99.99
2017-10-16T02:26:21.496Z,99.99
2017-10-16T02:27:32.052Z,99.99
2017-10-16T02:28:42.347Z,99.99
2017-10-16T02:29:52.645Z,99.99
2017-10-16T02:31:02.931Z,99.99
2017-10-16T02:32:12.910Z,99.99
2017-10-16T02:33:23.516Z,99.99
2017-10-16T02:34:33.490Z,99.99
2017-10-16T02:35:43.796Z,99.99
2017-10-16T02:36:54.097Z,99.99
2017-10-16T02:38:04.389Z,99.99
2017-10-16T02:39:14.938Z,99.99
2017-10-16T02:40:25.241Z,99.99
2017-10-16T02:41:35.550Z,99.99
2017-10-16T02:42:45.856Z,99.99
2017-10-16T02:43:56.156Z,99.99
2017-10-16T02:45:06.696Z,99.99
2017-10-16T02:46:16.990Z,99.99
2017-10-16T02:47:27.298Z,99.99
2017-10-16T02:48:37.262Z,99.99
2017-10-16T02:49:47.562Z,99.99
2017-10-16T02:50:58.161Z,99.99
2017-10-16T02:52:08.464Z,99.99
2017-10-16T02:53:18.765Z,99.99
2017-10-16T02:54:29.067Z,99.99
2017-10-16T02:55:39.392Z,99.99
2017-10-16T02:56:49.936Z,99.99
2017-10-16T02:58:00.243Z,99.99
2017-10-16T02:59:10.549Z,99.99
2017-10-16T03:00:20.851Z,99.99
2017-10-16T03:01:30.819Z,99.99
2017-10-16T03:02:41.374Z,99.99
2017-10-16T03:03:51.335Z,99.99
2017-10-16T03:05:01.622Z,99.99
2017-10-16T03:06:11.581Z,99.99
2017-10-16T03:07:21.544Z,99.99
2017-10-16T03:08:31.768Z,99.99
2017-10-16T03:09:41.406Z,99.99
2017-10-16T03:10:51.380Z,99.99
2017-10-16T03:12:01.687Z,99.99
2017-10-16T03:13:11.993Z,99.99
2017-10-16T03:14:22.552Z,99.99
2017-10-16T03:15:32.854Z,99.99
2017-10-16T03:16:42.832Z,99.99
2017-10-16T03:17:53.125Z,99.99
2017-10-16T03:19:03.452Z,99.99
2017-10-16T03:20:13.997Z,99.99
2017-10-16T03:21:24.287Z,99.99
2017-10-16T03:22:33.925Z,99.99
2017-10-16T03:23:44.218Z,99.99
2017-10-16T03:24:54.176Z,99.99
2017-10-16T03:26:04.717Z,99.99
2017-10-16T03:27:15.019Z,99.99
2017-10-16T03:28:24.982Z,99.99
2017-10-16T03:29:35.263Z,99.99
2017-10-16T03:30:45.234Z,99.99
2017-10-16T03:31:55.452Z,99.99
2017-10-16T03:33:05.808Z,99.99
2017-10-16T03:34:15.773Z,99.99
2017-10-16T03:35:25.741Z,99.99
2017-10-16T03:36:35.695Z,99.99
2017-10-16T03:37:45.918Z,99.99
2017-10-16T03:38:55.886Z,99.99
2017-10-16T03:40:05.858Z,99.99
2017-10-16T03:41:15.815Z,99.99
2017-10-16T03:42:25.780Z,99.99
2017-10-16T03:43:36.332Z,99.99
2017-10-16T03:44:46.622Z,99.99
2017-10-16T03:45:56.261Z,99.99
2017-10-16T03:47:06.554Z,99.99
2017-10-16T03:48:16.854Z,99.99
2017-10-16T03:49:27.398Z,99.99
2017-10-16T03:50:37.687Z,99.99
2017-10-16T03:51:47.988Z,99.99
2017-10-16T03:52:57.954Z,99.99
2017-10-16T03:54:08.244Z,99.99
2017-10-16T03:55:18.781Z,99.99
2017-10-16T03:56:28.422Z,99.99
2017-10-16T03:57:38.393Z,99.99
2017-10-16T03:58:48.367Z,99.99
2017-10-16T03:59:58.658Z,99.99
2017-10-16T04:01:08.554Z,99.99
2017-10-16T04:02:18.848Z,99.99
2017-10-16T04:03:29.160Z,99.99
2017-10-16T04:04:39.451Z,99.99
2017-10-16T04:05:49.425Z,99.99
2017-10-16T04:06:59.974Z,99.99
2017-10-16T04:08:10.269Z,99.99
2017-10-16T04:09:20.561Z,99.99
2017-10-16T04:10:30.531Z,99.99
2017-10-16T04:11:40.820Z,99.99
2017-10-16T04:12:51.392Z,99.99
2017-10-16T04:14:01.350Z,99.99
2017-10-16T04:15:11.640Z,99.99
2017-10-16T04:16:21.617Z,99.99
2017-10-16T04:17:31.910Z,99.99
2017-10-16T04:18:42.143Z,99.99
2017-10-16T04:19:52.448Z,99.99
2017-10-16T04:21:02.744Z,99.99
2017-10-16T04:22:13.048Z,99.99
2017-10-16T04:23:23.334Z,99.99
2017-10-16T04:24:33.555Z,99.99
2017-10-16T04:25:43.850Z,99.99
2017-10-16T04:26:53.817Z,99.99
2017-10-16T04:28:04.120Z,99.99
2017-10-16T04:29:14.421Z,99.99
2017-10-16T04:30:24.636Z,99.99
2017-10-16T04:31:34.931Z,99.99
2017-10-16T04:32:45.226Z,99.99
2017-10-16T04:33:55.193Z,99.99
2017-10-16T04:35:05.161Z,99.99
2017-10-16T04:36:15.725Z,99.99
2017-10-16T04:37:26.013Z,99.99
2017-10-16T04:38:36.313Z,99.99
2017-10-16T04:39:46.616Z,99.99
2017-10-16T04:40:56.909Z,99.99
2017-10-16T04:42:07.126Z,99.99
2017-10-16T04:43:17.414Z,99.99
2017-10-16T04:44:27.398Z,99.99
2017-10-16T04:45:37.703Z,99.99
2017-10-16T04:46:47.668Z,99.99
2017-10-16T04:47:58.225Z,99.99
2017-10-16T04:49:08.218Z,99.99
2017-10-16T04:50:18.506Z,99.99
2017-10-16T04:51:28.484Z,99.99
2017-10-16T04:52:38.783Z,99.99
2017-10-16T04:53:49.368Z,99.99
2017-10-16T04:54:59.658Z,99.99
2017-10-16T04:56:09.954Z,99.99
2017-10-16T04:57:20.261Z,99.99
2017-10-16T04:58:30.550Z,99.99
2017-10-16T04:59:41.139Z,99.99
2017-10-16T05:00:51.437Z,99.99
2017-10-16T05:02:01.403Z,99.99
2017-10-16T05:03:11.378Z,99.99
2017-10-16T05:04:21.385Z,99.99
2017-10-16T05:05:31.971Z,99.99
2017-10-16T05:06:41.959Z,99.99
2017-10-16T05:07:52.254Z,99.99
2017-10-16T05:09:02.544Z,99.99
2017-10-16T05:10:12.505Z,99.99
2017-10-16T05:11:23.075Z,99.99
2017-10-16T05:12:33.381Z,99.99
2017-10-16T05:13:43.672Z,99.99
2017-10-16T05:14:53.965Z,99.99
2017-10-16T05:16:04.297Z,99.99
2017-10-16T05:17:14.511Z,99.99
2017-10-16T05:18:24.489Z,99.99
2017-10-16T05:19:34.463Z,99.99
2017-10-16T05:20:44.759Z,99.99
2017-10-16T05:21:55.054Z,99.99
2017-10-16T05:23:05.268Z,99.99
2017-10-16T05:24:14.924Z,99.99
2017-10-16T05:25:24.881Z,99.99
2017-10-16T05:26:35.170Z,99.99
2017-10-16T05:27:45.468Z,99.99
2017-10-16T05:28:55.422Z,99.99
2017-10-16T05:30:05.733Z,99.99
2017-10-16T05:31:16.021Z,99.99
2017-10-16T05:32:26.324Z,99.99
2017-10-16T05:33:36.620Z,99.99
2017-10-16T05:34:46.857Z,99.99
2017-10-16T05:35:56.823Z,99.99
2017-10-16T05:37:07.154Z,99.99
2017-10-16T05:38:17.130Z,99.99
2017-10-16T05:39:27.434Z,99.99
2017-10-16T05:40:37.978Z,99.99
2017-10-16T05:41:48.278Z,99.99
2017-10-16T05:42:58.280Z,99.99
2017-10-16T05:44:08.252Z,99.99
2017-10-16T05:45:18.545Z,99.99
2017-10-16T05:46:29.105Z,99.99
2017-10-16T05:47:39.426Z,99.99
2017-10-16T05:48:49.722Z,99.99
2017-10-16T05:49:59.390Z,99.99
2017-10-16T05:51:09.751Z,99.99
2017-10-16T05:52:20.297Z,99.99
2017-10-16T05:53:30.285Z,99.99
2017-10-16T05:54:40.582Z,99.99
2017-10-16T05:55:50.569Z,99.99
2017-10-16T05:57:00.541Z,99.99
2017-10-16T05:58:11.197Z,99.99
2017-10-16T05:59:21.492Z,99.99
2017-10-16T06:00:31.800Z,99.99
2017-10-16T06:01:41.113Z,99.99
2017-10-16T06:02:51.449Z,99.99
2017-10-16T06:04:01.675Z,99.99
2017-10-16T06:05:11.680Z,99.99
2017-10-16T06:06:21.668Z,99.99
2017-10-16T06:07:31.981Z,99.99
2017-10-16T06:08:41.629Z,99.99
2017-10-16T06:09:52.178Z,99.99
2017-10-16T06:11:02.474Z,99.99
2017-10-16T06:12:12.786Z,99.99
2017-10-16T06:13:23.082Z,99.99
2017-10-16T06:14:33.378Z,99.99
2017-10-16T06:15:43.607Z,99.99
2017-10-16T06:16:52.928Z,99.99
2017-10-16T06:18:03.231Z,99.99
2017-10-16T06:19:13.533Z,99.99
2017-10-16T06:20:23.840Z,99.99
2017-10-16T06:21:34.081Z,99.99
2017-10-16T06:22:44.410Z,99.99
2017-10-16T06:23:54.940Z,99.99
2017-10-16T06:25:05.238Z,99.99
2017-10-16T06:26:15.559Z,99.99
2017-10-16T06:27:26.192Z,99.99
2017-10-16T06:28:36.511Z,99.99
2017-10-16T06:29:46.859Z,99.99
2017-10-16T06:30:57.175Z,99.99
2017-10-16T06:32:07.497Z,99.99
2017-10-16T06:33:18.306Z,99.99
2017-10-16T06:34:28.620Z,99.99
2017-10-16T06:35:38.919Z,99.99
2017-10-16T06:36:49.227Z,99.99
2017-10-16T06:37:59.220Z,99.99
2017-10-16T06:39:09.769Z,99.99
2017-10-16T06:40:20.115Z,99.99
2017-10-16T06:41:30.453Z,99.99
2017-10-16T06:42:40.115Z,99.99
2017-10-16T06:43:49.122Z,99.99
2017-10-16T06:44:59.373Z,99.99
2017-10-16T06:46:09.054Z,99.99
2017-10-16T06:47:19.052Z,99.99
2017-10-16T06:48:29.375Z,99.99
2017-10-16T06:49:39.681Z,99.99
2017-10-16T06:50:50.271Z,99.99
2017-10-16T06:52:00.584Z,99.99
2017-10-16T06:53:10.902Z,99.99
2017-10-16T06:54:21.203Z,99.99
2017-10-16T06:55:31.521Z,99.99
2017-10-16T06:56:42.281Z,99.99
2017-10-16T06:57:52.609Z,99.99
2017-10-16T06:59:02.927Z,99.99
2017-10-16T07:00:13.262Z,99.99
2017-10-16T07:01:23.571Z,99.99
2017-10-16T07:02:33.808Z,99.99
2017-10-16T07:03:43.789Z,99.99
2017-10-16T07:04:53.769Z,99.99
2017-10-16T07:06:04.064Z,99.99
2017-10-16T07:07:14.370Z,99.99
2017-10-16T07:08:24.933Z,99.99
2017-10-16T07:09:35.226Z,99.99
2017-10-16T07:10:45.556Z,99.99
2017-10-16T07:11:55.866Z,99.99
2017-10-16T07:13:06.215Z,99.99
2017-10-16T07:14:16.412Z,99.99
2017-10-16T07:15:26.727Z,99.99
2017-10-16T07:16:36.713Z,99.99
2017-10-16T07:17:47.042Z,99.99
2017-10-16T07:18:57.355Z,99.99
2017-10-16T07:20:07.583Z,99.99
2017-10-16T07:21:17.890Z,99.99
2017-10-16T07:22:27.854Z,99.99
2017-10-16T07:23:38.167Z,99.99
2017-10-16T07:24:48.500Z,99.99
2017-10-16T07:25:59.052Z,99.99
2017-10-16T07:27:09.340Z,99.99
2017-10-16T07:28:19.637Z,99.99
2017-10-16T07:29:29.978Z,99.99
2017-10-16T07:30:40.301Z,99.99
2017-10-16T07:31:50.867Z,99.99
2017-10-16T07:33:00.843Z,99.99
2017-10-16T07:34:10.506Z,99.99
2017-10-16T07:35:20.472Z,99.99
2017-10-16T07:36:30.784Z,99.99
2017-10-16T07:37:41.010Z,99.99
2017-10-16T07:38:51.325Z,99.99
2017-10-16T07:40:01.627Z,99.99
2017-10-16T07:41:11.923Z,99.99
2017-10-16T07:42:22.232Z,99.99
2017-10-16T07:43:32.836Z,99.99
2017-10-16T07:44:43.152Z,99.99
2017-10-16T07:45:53.470Z,99.99
2017-10-16T07:47:03.460Z,99.99
2017-10-16T07:48:13.777Z,99.99
2017-10-16T07:49:24.472Z,99.99
2017-10-16T07:50:34.832Z,99.99
2017-10-16T07:51:45.171Z,99.99
2017-10-16T07:52:55.156Z,99.99
2017-10-16T07:54:05.504Z,99.99
2017-10-16T07:55:16.164Z,99.99
2017-10-16T07:56:26.531Z,99.99
2017-10-16T07:57:36.919Z,99.99
2017-10-16T07:58:47.234Z,99.99
2017-10-16T07:59:57.545Z,99.99
2017-10-16T08:01:08.173Z,99.99
2017-10-16T08:02:18.500Z,99.99
2017-10-16T08:03:28.817Z,99.99
2017-10-16T08:04:39.139Z,99.99
2017-10-16T08:05:49.530Z,99.99
2017-10-16T08:07:00.170Z,99.99
2017-10-16T08:08:09.835Z,99.99
2017-10-16T08:09:20.185Z,99.34
2017-10-16T08:10:30.541Z,98.76
2017-10-16T08:11:40.555Z,98.33
2017-10-16T08:12:51.116Z,98.62
2017-10-16T08:14:01.440Z,97.85
2017-10-16T08:15:11.750Z,98.14
2017-10-16T08:16:21.417Z,98.43
2017-10-16T08:17:31.063Z,98.43
2017-10-16T08:18:41.291Z,97.95
2017-10-16T08:19:51.288Z,97.85
2017-10-16T08:21:01.296Z,96.8
2017-10-16T08:22:10.950Z,96.27
2017-10-16T08:23:21.260Z,96.47
2017-10-16T08:24:31.870Z,95.79
2017-10-16T08:25:41.860Z,95.6
2017-10-16T08:26:52.180Z,95.51
2017-10-16T08:28:02.188Z,95.79
2017-10-16T08:29:12.503Z,95.41
2017-10-16T08:30:22.751Z,95.7
2017-10-16T08:31:33.059Z,95.6
2017-10-16T08:32:43.914Z,95.26
2017-10-16T08:33:53.921Z,95.26
2017-10-16T08:35:03.929Z,94.21
2017-10-16T08:36:14.502Z,93.15
2017-10-16T08:37:24.832Z,92.68
2017-10-16T08:38:35.133Z,93.1
2017-10-16T08:39:45.443Z,92.14
2017-10-16T08:40:55.762Z,92.05
2017-10-16T08:42:06.012Z,91.86
2017-10-16T08:43:16.334Z,91.96
2017-10-16T08:44:26.654Z,91.23
2017-10-16T08:45:36.996Z,90.56
2017-10-16T08:46:47.021Z,90.17
2017-10-16T08:47:57.632Z,90.17
2017-10-16T08:49:07.647Z,90.17
2017-10-16T08:50:17.690Z,89.64
2017-10-16T08:51:27.705Z,90.31
2017-10-16T08:52:37.707Z,89.36
2017-10-16T08:53:48.291Z,89.26
2017-10-16T08:54:58.622Z,88.68
2017-10-16T08:56:08.624Z,87.67
2017-10-16T08:57:18.959Z,87.62
2017-10-16T08:58:29.290Z,87.38
2017-10-16T08:59:39.860Z,86.99
2017-10-16T09:00:50.192Z,86.52
2017-10-16T09:02:00.170Z,86.13
2017-10-16T09:03:10.562Z,86.52
2017-10-16T09:04:20.868Z,85.75
2017-10-16T09:05:31.090Z,85.4
2017-10-16T09:06:41.395Z,85.31
2017-10-16T09:07:51.379Z,86.56
2017-10-16T09:09:01.686Z,84.87
2017-10-16T09:10:12.000Z,83.33
2017-10-16T09:11:22.559Z,82.75
2017-10-16T09:12:32.946Z,82.46
2017-10-16T09:13:42.960Z,82.94
2017-10-16T09:14:52.947Z,82.94
2017-10-16T09:16:03.259Z,83.62
2017-10-16T09:17:13.826Z,83.77
2017-10-16T09:18:24.139Z,83.09
2017-10-16T09:19:34.441Z,83.62
2017-10-16T09:20:44.746Z,82.94
2017-10-16T09:21:55.058Z,82.85
2017-10-16T09:23:05.611Z,82.27
2017-10-16T09:24:15.924Z,80.1
2017-10-16T09:25:26.236Z,81.06
2017-10-16T09:26:36.538Z,79.94
2017-10-16T09:27:46.858Z,79.36
2017-10-16T09:28:57.423Z,79.94
2017-10-16T09:30:07.732Z,79.94
2017-10-16T09:31:18.038Z,79.75
2017-10-16T09:32:28.029Z,79.46
2017-10-16T09:33:38.014Z,79.56
2017-10-16T09:34:48.264Z,78.79
2017-10-16T09:35:58.587Z,79.46
2017-10-16T09:37:08.897Z,77.48
2017-10-16T09:38:18.562Z,76.75
2017-10-16T09:39:28.915Z,76.71
2017-10-16T09:40:39.590Z,76.23
2017-10-16T09:41:49.930Z,76.45
2017-10-16T09:42:59.926Z,76.71
2017-10-16T09:44:10.234Z,76.55
2017-10-16T09:45:20.231Z,76.07
2017-10-16T09:46:30.829Z,75.34
2017-10-16T09:47:41.162Z,75.43
2017-10-16T09:48:51.481Z,73.6
2017-10-16T09:50:01.178Z,74.57
2017-10-16T09:51:11.505Z,75.14
2017-10-16T09:52:22.090Z,75.14
2017-10-16T09:53:32.440Z,74.95
2017-10-16T09:54:42.752Z,73.83
2017-10-16T09:55:52.736Z,72.48
2017-10-16T09:57:02.397Z,72.52
2017-10-16T09:58:12.629Z,71.74
2017-10-16T09:59:22.942Z,71.36
2017-10-16T10:00:33.270Z,71.48
2017-10-16T10:01:43.580Z,71.55
2017-10-16T10:02:53.917Z,71.58
2017-10-16T10:04:04.267Z,70.72
2017-10-16T10:05:14.617Z,71
2017-10-16T10:06:24.947Z,71
2017-10-16T10:07:34.939Z,70.14
2017-10-16T10:08:44.932Z,71.2
2017-10-16T10:09:55.518Z,71.55
2017-10-16T10:11:05.884Z,70.72
2017-10-16T10:12:15.890Z,70.72
2017-10-16T10:13:26.213Z,71.2
2017-10-16T10:14:36.540Z,70.32
2017-10-16T10:15:46.776Z,69.2
2017-10-16T10:16:56.442Z,69.68
2017-10-16T10:18:06.776Z,68.72
2017-10-16T10:19:17.134Z,68.95
2017-10-16T10:20:27.448Z,68.27
2017-10-16T10:21:37.721Z,68.37
2017-10-16T10:22:47.713Z,68.37
2017-10-16T10:23:58.041Z,67.3
2017-10-16T10:25:08.370Z,67.33
2017-10-16T10:26:18.375Z,67.43
2017-10-16T10:27:28.632Z,68.17
2017-10-16T10:28:38.627Z,67.79
2017-10-16T10:29:48.619Z,67.3
2017-10-16T10:30:58.616Z,68.21
2017-10-16T10:32:08.583Z,67.91
2017-10-16T10:33:19.145Z,68.27
2017-10-16T10:34:29.128Z,68.52
2017-10-16T10:35:39.474Z,67.98
2017-10-16T10:36:49.783Z,67.01
2017-10-16T10:38:00.343Z,67.43
2017-10-16T10:39:10.723Z,67.72
2017-10-16T10:40:21.047Z,67.4
2017-10-16T10:41:31.369Z,67.33
2017-10-16T10:42:41.726Z,68.27
2017-10-16T10:43:51.956Z,68.27
2017-10-16T10:45:02.283Z,69.14
2017-10-16T10:46:12.604Z,68.46
2017-10-16T10:47:22.600Z,68.37
2017-10-16T10:48:32.925Z,67.05
2017-10-16T10:49:43.233Z,66.5
2017-10-16T10:50:52.894Z,65.82
2017-10-16T10:52:03.216Z,66.2
2017-10-16T10:53:13.535Z,66.02
2017-10-16T10:54:23.883Z,66.02
2017-10-16T10:55:34.209Z,65.53
2017-10-16T10:56:44.530Z,65.24
2017-10-16T10:57:54.547Z,65.92
2017-10-16T10:59:04.536Z,65.34
2017-10-16T11:00:14.190Z,65.88
2017-10-16T11:01:24.508Z,66.2
2017-10-16T11:02:34.815Z,66.6
2017-10-16T11:03:44.792Z,66.85
2017-10-16T11:04:55.119Z,66.17
2017-10-16T11:06:05.450Z,66.3
2017-10-16T11:07:16.025Z,66.37
2017-10-16T11:08:26.357Z,66.75
2017-10-16T11:09:36.729Z,66.75
2017-10-16T11:10:46.719Z,66.27
2017-10-16T11:11:57.059Z,66.66
2017-10-16T11:13:07.584Z,66.5
2017-10-16T11:14:17.253Z,66.3
2017-10-16T11:15:27.248Z,65.92
2017-10-16T11:16:37.585Z,66.11
2017-10-16T11:17:47.804Z,65.82
2017-10-16T11:18:57.795Z,66.02
2017-10-16T11:20:07.773Z,66.2
2017-10-16T11:21:17.833Z,66.63
2017-10-16T11:22:28.151Z,65.66
2017-10-16T11:23:38.513Z,65.17
2017-10-16T11:24:48.831Z,65.08
2017-10-16T11:25:59.140Z,64.79
2017-10-16T11:27:09.145Z,63.95
2017-10-16T11:28:19.471Z,64.24
2017-10-16T11:29:29.828Z,64.43
2017-10-16T11:30:40.143Z,63.75
2017-10-16T11:31:50.124Z,63.27
2017-10-16T11:33:00.503Z,64.34
2017-10-16T11:34:10.847Z,64.79
2017-10-16T11:35:20.822Z,64.98
2017-10-16T11:36:30.480Z,64.62
2017-10-16T11:37:40.796Z,64.69
2017-10-16T11:38:51.126Z,64.69
2017-10-16T11:40:01.120Z,64.89
2017-10-16T11:41:11.470Z,64.4
2017-10-16T11:42:21.460Z,64.98
2017-10-16T11:43:31.805Z,64.89
2017-10-16T11:44:42.121Z,65.08
2017-10-16T11:45:52.453Z,66.02
2017-10-16T11:47:02.802Z,65.59
2017-10-16T11:48:12.806Z,65.53
2017-10-16T11:49:22.466Z,65.17
2017-10-16T11:50:32.855Z,65.05
2017-10-16T11:51:43.194Z,64.98
2017-10-16T11:52:52.892Z,64.98
2017-10-16T11:54:03.216Z,64.72
2017-10-16T11:55:13.542Z,64.43
2017-10-16T11:56:23.540Z,65.01
2017-10-16T11:57:33.872Z,65.85
2017-10-16T11:58:43.859Z,65.59
2017-10-16T11:59:53.881Z,64.62
2017-10-16T12:01:04.078Z,64.72
2017-10-16T12:02:14.416Z,64.89
2017-10-16T12:03:24.778Z,65.37
2017-10-16T12:04:35.118Z,65.95
2017-10-16T12:05:45.112Z,64.72
2017-10-16T12:06:55.476Z,62.82
2017-10-16T12:08:05.831Z,63.49
2017-10-16T12:09:16.150Z,62.82
2017-10-16T12:10:26.158Z,63.2
2017-10-16T12:11:36.184Z,62.85
2017-10-16T12:12:46.546Z,64.82
2017-10-16T12:13:56.570Z,65.17
2017-10-16T12:15:06.887Z,65.47
2017-10-16T12:16:17.215Z,64.89
2017-10-16T12:17:27.520Z,65.27
2017-10-16T12:18:37.912Z,64.04
2017-10-16T12:19:47.902Z,62.98
2017-10-16T12:20:57.604Z,62.33
2017-10-16T12:22:07.602Z,63.53
2017-10-16T12:23:17.591Z,63.49
2017-10-16T12:24:27.926Z,63.56
2017-10-16T12:25:38.613Z,64.72
2017-10-16T12:26:48.963Z,63.27
2017-10-16T12:27:59.294Z,63.95
2017-10-16T12:29:09.599Z,64.24
2017-10-16T12:30:19.924Z,63.56
2017-10-16T12:31:30.279Z,62.72
2017-10-16T12:32:40.597Z,62.13
2017-10-16T12:33:50.915Z,61.19
2017-10-16T12:35:00.913Z,61.19
2017-10-16T12:36:10.903Z,61.17
2017-10-16T12:37:21.229Z,61.1
2017-10-16T12:38:31.558Z,61.1
2017-10-16T12:39:41.871Z,61.68
2017-10-16T12:40:52.192Z,60.23
2017-10-16T12:42:02.171Z,59.74
2017-10-16T12:43:12.160Z,60.61
2017-10-16T12:44:22.506Z,60.06
2017-10-16T12:45:32.817Z,60.91
2017-10-16T12:46:43.141Z,60.61
2017-10-16T12:47:53.450Z,61.49
2017-10-16T12:49:03.998Z,61.39
2017-10-16T12:50:13.655Z,61.58
2017-10-16T12:51:23.644Z,61.29
2017-10-16T12:52:33.964Z,60.94
2017-10-16T12:53:44.283Z,60.84
2017-10-16T12:54:54.612Z,60.74
2017-10-16T12:56:04.922Z,61.13
2017-10-16T12:57:15.240Z,60.71
2017-10-16T12:58:25.240Z,61.39
2017-10-16T12:59:35.560Z,60.81
2017-10-16T13:00:45.878Z,60.06
2017-10-16T13:01:56.196Z,59.97
2017-10-16T13:03:06.521Z,60.23
2017-10-16T13:04:16.510Z,60.42
2017-10-16T13:05:26.490Z,61.39
2017-10-16T13:06:35.824Z,61.55
2017-10-16T13:07:45.824Z,61.17
2017-10-16T13:08:55.821Z,61.07
2017-10-16T13:10:05.834Z,61.46
2017-10-16T13:11:16.159Z,62.2
2017-10-16T13:12:26.482Z,63.07
2017-10-16T13:13:36.789Z,62.85
2017-10-16T13:14:46.778Z,62.85
2017-10-16T13:15:57.105Z,62.85
2017-10-16T13:17:07.424Z,63.24
2017-10-16T13:18:17.983Z,63.04
2017-10-16T13:19:27.968Z,63.14
2017-10-16T13:20:38.275Z,63.62
2017-10-16T13:21:48.584Z,63.59
2017-10-16T13:22:58.567Z,64.89
2017-10-16T13:24:08.558Z,64.47
2017-10-16T13:25:18.217Z,64.04
2017-10-16T13:26:28.560Z,64.37
2017-10-16T13:27:38.871Z,64.01
2017-10-16T13:28:49.206Z,63.53
2017-10-16T13:29:59.516Z,63.14
2017-10-16T13:31:09.827Z,63.34
2017-10-16T13:32:20.173Z,62.66
2017-10-16T13:33:30.491Z,62.59
2017-10-16T13:34:40.818Z,62.69
2017-10-16T13:35:50.815Z,62.98
2017-10-16T13:37:01.140Z,63.95
2017-10-16T13:38:11.122Z,63.37
2017-10-16T13:39:21.097Z,63.17
2017-10-16T13:40:31.086Z,63.95
2017-10-16T13:41:41.405Z,64.92
2017-10-16T13:42:51.408Z,65.66
2017-10-16T13:44:01.724Z,66.14
2017-10-16T13:45:12.062Z,66.4
2017-10-16T13:46:21.709Z,66.53
2017-10-16T13:47:32.032Z,65.37
2017-10-16T13:48:42.341Z,65.47
2017-10-16T13:49:52.648Z,65.2
2017-10-16T13:51:02.649Z,65.11
2017-10-16T13:52:12.988Z,66.08
2017-10-16T13:53:23.301Z,66.34
2017-10-16T13:54:33.633Z,66.82
2017-10-16T13:55:43.704Z,66.24
2017-10-16T13:56:54.131Z,66.27
2017-10-16T13:58:04.180Z,66.75
2017-10-16T13:59:14.508Z,66.53
2017-10-16T14:00:24.869Z,64.59
2017-10-16T14:01:35.178Z,66.53
2017-10-16T14:02:45.575Z,67.11
2017-10-16T14:03:55.587Z,66.82
2017-10-16T14:05:05.593Z,65.17
2017-10-16T14:06:15.918Z,64.89
2017-10-16T14:07:26.233Z,64.4
2017-10-16T14:08:36.210Z,64.89
2017-10-16T14:09:45.870Z,65.72
2017-10-16T14:10:56.435Z,66.4
2017-10-16T14:12:06.740Z,66.6
2017-10-16T14:13:16.707Z,66.2
2017-10-16T14:14:27.053Z,66.37
2017-10-16T14:15:37.369Z,66.66
2017-10-16T14:16:47.354Z,67.24
2017-10-16T14:17:57.649Z,67.05
2017-10-16T14:19:07.964Z,67.24
2017-10-16T14:20:18.308Z,67.05
2017-10-16T14:21:28.638Z,67.33
2017-10-16T14:22:38.952Z,67.05
2017-10-16T14:23:49.265Z,67.53
2017-10-16T14:24:59.260Z,67.33
2017-10-16T14:26:09.257Z,67.72
2017-10-16T14:27:19.564Z,68.21
2017-10-16T14:28:29.885Z,68.37
2017-10-16T14:29:40.234Z,69.14
2017-10-16T14:30:50.566Z,69.62
2017-10-16T14:32:00.876Z,70.01
2017-10-16T14:33:11.180Z,69.88
2017-10-16T14:34:21.504Z,69.98
2017-10-16T14:35:31.825Z,71.14
2017-10-16T14:36:41.828Z,70.52
2017-10-16T14:37:51.821Z,71.39
2017-10-16T14:39:02.129Z,71.58
2017-10-16T14:40:12.447Z,71.88
2017-10-16T14:41:22.757Z,71.58
2017-10-16T14:42:32.742Z,71.2
2017-10-16T14:43:43.072Z,71.68
2017-10-16T14:44:53.400Z,71.58
2017-10-16T14:46:03.400Z,71.68
2017-10-16T14:47:13.730Z,71.97
2017-10-16T14:48:24.053Z,72.03
2017-10-16T14:49:34.052Z,71.78
2017-10-16T14:50:43.706Z,71.84
2017-10-16T14:51:54.012Z,72.32
2017-10-16T14:53:04.309Z,72.22
2017-10-16T14:54:14.627Z,72.42
2017-10-16T14:55:24.951Z,71.64
2017-10-16T14:56:35.257Z,71.84
2017-10-16T14:57:45.561Z,71.94
2017-10-16T14:58:55.538Z,71.74
2017-10-16T15:00:05.845Z,71.94
2017-10-16T15:01:16.148Z,72.42
2017-10-16T15:02:26.448Z,72.71
2017-10-16T15:03:36.758Z,73.19
2017-10-16T15:04:47.072Z,74.02